Round Mountain, Texas
Current Conditions -  °F | °C
As of 2:35 PM on Thursday 27 Nov 2014 (Local Time) from KDZB Reporting Station
Clear Clear  
Wind Chill: 63°   Ceiling: Unl
Heat Index: 63°   Visibility: 10mi
Dew Point: 26°   Wind: 6mph
Humidity: 24%   Direction: 130°SE
Pressure: 30.42"   Gusts: NA
Location:  30.43°N, 98.34°W
Report Text: KDZB 272035Z AUTO 13005KT 10SM CLR 17/M03 A3042 RMK AO2 T01711035
Loading
Personal Weather Stations






























Interactive Weather Map New forecast layout! Learn more

10-Day Weather Forecast

Advertisements
Track Severe Weather on mobile